createdAt,value
2023-01-01T00:03:34.030Z,51.10
2023-01-01T00:08:37.232Z,52.67
2023-01-01T00:13:42.301Z,63.20
2023-01-01T00:18:45.144Z,55.97
2023-01-01T00:23:48.267Z,68.70
2023-01-01T00:28:51.099Z,63.17
2023-01-01T00:33:55.790Z,59.13
2023-01-01T00:38:58.810Z,53.07
2023-01-01T00:44:01.817Z,51.33
2023-01-01T00:49:04.570Z,50.60
2023-01-01T00:54:07.760Z,49.37
2023-01-01T00:59:10.790Z,43.07
2023-01-01T01:04:14.249Z,48.50
2023-01-01T01:09:17.105Z,48.13
2023-01-01T01:14:20.247Z,46.60
2023-01-01T01:19:25.589Z,39.87
2023-01-01T01:24:28.586Z,44.27
2023-01-01T01:29:31.498Z,42.80
2023-01-01T01:34:34.969Z,44.10
2023-01-01T01:39:38.982Z,48.03
2023-01-01T01:45:06.858Z,45.33
2023-01-01T01:50:27.531Z,44.63
2023-01-01T01:55:33.915Z,40.10
2023-01-01T02:00:37.074Z,42.13
2023-01-01T02:05:41.529Z,47.10
2023-01-01T02:10:44.525Z,42.73
2023-01-01T02:16:20.784Z,32.90
2023-01-01T02:21:56.817Z,38.67
2023-01-01T02:27:21.078Z,35.87
2023-01-01T02:32:46.747Z,32.53
2023-01-01T02:37:55.771Z,33.63
2023-01-01T02:43:01.728Z,38.20
2023-01-01T02:48:07.634Z,35.50
2023-01-01T02:53:33.663Z,35.30
2023-01-01T02:59:06.007Z,36.93
2023-01-01T03:04:46.325Z,35.47
2023-01-01T03:10:15.461Z,34.67
2023-01-01T03:15:49.418Z,32.63
2023-01-01T03:20:59.708Z,34.00
2023-01-01T03:26:11.249Z,29.83
2023-01-01T03:31:21.676Z,25.83
2023-01-01T03:36:34.048Z,23.60
2023-01-01T03:42:01.423Z,25.80
2023-01-01T03:47:06.976Z,21.83
2023-01-01T03:52:35.854Z,24.43
2023-01-01T03:58:24.057Z,22.03
2023-01-01T04:03:31.224Z,22.03
2023-01-01T04:08:35.982Z,22.20
2023-01-01T04:13:48.542Z,23.97
2023-01-01T04:18:51.557Z,25.20
2023-01-01T04:23:54.463Z,26.80
2023-01-01T04:28:57.266Z,28.37
2023-01-01T04:34:00.268Z,25.63
2023-01-01T04:39:04.004Z,21.90
2023-01-01T04:44:07.056Z,22.77
2023-01-01T04:49:09.955Z,24.03
2023-01-01T04:54:12.980Z,24.50
2023-01-01T04:59:15.930Z,22.20
2023-01-01T05:04:18.790Z,25.87
2023-01-01T05:09:22.150Z,30.33
2023-01-01T05:14:25.029Z,27.97
2023-01-01T05:19:27.964Z,20.83
2023-01-01T05:24:31.531Z,23.80
2023-01-01T05:29:34.433Z,22.37
2023-01-01T05:39:39.584Z,21.83
2023-01-01T05:44:42.428Z,23.10
2023-01-01T05:49:45.759Z,23.10
2023-01-01T05:54:48.717Z,23.50
2023-01-01T05:59:52.751Z,27.00
2023-01-01T06:04:55.653Z,21.80
2023-01-01T06:09:58.547Z,21.90
2023-01-01T06:15:01.257Z,24.90
2023-01-01T06:20:04.543Z,24.87
2023-01-01T06:25:08.678Z,25.30
2023-01-01T06:30:11.803Z,22.70
2023-01-01T06:35:14.842Z,19.73
2023-01-01T06:40:17.789Z,18.20
2023-01-01T06:45:20.780Z,17.90
2023-01-01T06:50:23.694Z,22.07
2023-01-01T06:55:26.596Z,22.47
2023-01-01T07:00:29.560Z,22.80
2023-01-01T07:05:32.508Z,20.90
2023-01-01T07:10:35.585Z,22.27
2023-01-01T07:15:38.559Z,21.47
2023-01-01T07:20:42.428Z,19.00
2023-01-01T07:25:45.546Z,21.37
2023-01-01T07:30:49.394Z,21.10
2023-01-01T07:35:52.398Z,18.53
2023-01-01T07:40:55.817Z,20.37
2023-01-01T07:46:02.144Z,18.10
2023-01-01T07:51:05.394Z,20.10
2023-01-01T07:56:08.858Z,19.87
2023-01-01T08:01:14.741Z,17.17
2023-01-01T08:06:17.860Z,15.57
2023-01-01T08:11:21.173Z,21.27
2023-01-01T08:16:24.095Z,20.50
2023-01-01T08:21:27.303Z,19.60
2023-01-01T08:26:34.399Z,17.53
2023-01-01T08:31:37.349Z,16.77
2023-01-01T08:36:40.811Z,14.23
2023-01-01T08:41:43.919Z,21.23
2023-01-01T08:46:47.116Z,17.00
2023-01-01T08:51:50.265Z,15.97
2023-01-01T08:56:53.225Z,21.20
2023-01-01T09:01:56.420Z,15.70
2023-01-01T09:06:59.498Z,17.30
2023-01-01T09:12:08.387Z,15.63
2023-01-01T09:17:11.290Z,15.57
2023-01-01T09:22:14.439Z,37.93
2023-01-01T09:27:17.390Z,17.70
2023-01-01T09:32:20.339Z,22.90
2023-01-01T09:37:24.310Z,23.10
2023-01-01T09:42:48.590Z,19.67
2023-01-01T09:47:56.438Z,17.90
2023-01-01T09:53:08.016Z,23.60
2023-01-01T10:03:32.773Z,15.40
2023-01-01T10:08:47.372Z,14.83
2023-01-01T10:13:51.994Z,14.03
2023-01-01T10:19:50.745Z,17.73
2023-01-01T10:25:06.306Z,18.83
2023-01-01T10:30:29.594Z,19.10
2023-01-01T10:35:40.451Z,13.77
2023-01-01T10:40:43.291Z,13.80
2023-01-01T10:45:53.649Z,13.50
2023-01-01T10:51:14.436Z,12.03
2023-01-01T10:56:21.647Z,11.73
2023-01-01T11:01:33.877Z,11.23
2023-01-01T11:06:47.728Z,12.73
2023-01-01T11:12:09.558Z,10.27
2023-01-01T11:17:32.776Z,10.37
2023-01-01T11:22:51.650Z,11.80
2023-01-01T11:28:21.979Z,11.47
2023-01-01T11:33:25.912Z,10.80
2023-01-01T11:38:30.569Z,11.47
2023-01-01T11:43:46.773Z,12.53
2023-01-01T11:48:50.492Z,12.00
2023-01-01T11:54:11.850Z,11.73
2023-01-01T11:59:18.728Z,12.00
2023-01-01T12:04:56.204Z,11.53
2023-01-01T12:10:13.985Z,15.00
2023-01-01T12:15:28.892Z,14.80
2023-01-01T12:20:59.724Z,11.30
2023-01-01T12:26:08.521Z,14.47
2023-01-01T12:31:49.174Z,13.03
2023-01-01T12:37:10.556Z,12.17
2023-01-01T12:42:25.141Z,11.20
2023-01-01T12:47:49.267Z,11.60
2023-01-01T12:53:28.760Z,10.53
2023-01-01T12:58:44.067Z,10.67
2023-01-01T13:03:56.826Z,10.40
2023-01-01T13:09:15.318Z,12.03
2023-01-01T13:14:18.602Z,12.37
2023-01-01T13:19:31.932Z,12.97
2023-01-01T13:24:34.910Z,10.93
2023-01-01T13:29:45.250Z,16.47
2023-01-01T13:35:02.836Z,16.10
2023-01-01T13:40:11.766Z,13.17
2023-01-01T13:52:05.290Z,11.57
2023-01-01T13:57:42.960Z,13.23
2023-01-01T14:02:58.818Z,14.37
2023-01-01T14:08:02.139Z,14.30
2023-01-01T14:13:10.669Z,23.20
2023-01-01T14:18:18.217Z,17.80
2023-01-01T14:23:32.653Z,14.60
2023-01-01T14:28:36.887Z,14.80
2023-01-01T14:33:40.363Z,12.80
2023-01-01T14:38:46.471Z,17.63
2023-01-01T14:43:53.610Z,16.03
2023-01-01T14:49:08.663Z,17.03
2023-01-01T14:54:19.932Z,14.40
2023-01-01T14:59:33.019Z,15.13
2023-01-01T15:04:36.200Z,15.47
2023-01-01T15:09:38.897Z,21.17
2023-01-01T15:14:45.777Z,17.27
2023-01-01T15:20:06.415Z,15.77
2023-01-01T15:25:16.127Z,16.23
2023-01-01T15:30:27.484Z,16.03
2023-01-01T15:35:33.362Z,18.17
2023-01-01T15:40:36.371Z,29.63
2023-01-01T15:45:42.014Z,23.30
2023-01-01T15:50:50.971Z,21.60
2023-01-01T15:55:56.791Z,16.00
2023-01-01T16:01:04.007Z,17.00
2023-01-01T16:06:07.940Z,16.63
2023-01-01T16:11:10.863Z,15.20
2023-01-01T16:16:32.755Z,14.10
2023-01-01T16:26:39.558Z,15.60
2023-01-01T16:31:43.999Z,12.60
2023-01-01T16:36:47.896Z,13.67
2023-01-01T16:41:50.803Z,12.73
2023-01-01T16:46:53.880Z,16.73
2023-01-01T16:51:56.712Z,12.63
2023-01-01T16:56:59.806Z,13.50
2023-01-01T17:02:02.719Z,20.33
2023-01-01T17:07:05.671Z,19.43
2023-01-01T17:12:08.616Z,17.67
2023-01-01T17:17:11.539Z,17.40
2023-01-01T17:22:14.399Z,15.83
2023-01-01T17:27:17.279Z,16.67
2023-01-01T17:32:20.220Z,16.00
2023-01-01T17:37:23.149Z,18.37
2023-01-01T17:42:26.822Z,25.10
2023-01-01T17:47:33.228Z,21.37
2023-01-01T17:52:36.573Z,22.67
2023-01-01T17:57:39.548Z,19.57
2023-01-01T18:02:42.603Z,18.97
2023-01-01T18:07:45.846Z,17.20
2023-01-01T18:12:48.762Z,17.40
2023-01-01T18:17:51.760Z,15.00
2023-01-01T18:22:54.709Z,14.83
2023-01-01T18:27:57.938Z,15.73
2023-01-01T18:33:00.986Z,14.03
2023-01-01T18:38:03.943Z,12.83
2023-01-01T18:43:15.221Z,13.20
2023-01-01T18:48:21.596Z,12.82
2023-01-01T18:53:24.494Z,14.53
2023-01-01T18:58:28.075Z,14.10
2023-01-01T19:03:37.480Z,18.83
2023-01-01T19:08:44.323Z,15.47
2023-01-01T19:13:47.336Z,15.30
2023-01-01T19:18:51.700Z,14.67
2023-01-01T19:23:58.734Z,17.03
2023-01-01T19:29:21.568Z,15.90
2023-01-01T19:34:25.598Z,16.13
2023-01-01T19:39:29.234Z,16.63
2023-01-01T19:44:34.342Z,17.20
2023-01-01T19:49:37.867Z,19.03
2023-01-01T19:54:41.429Z,18.30
2023-01-01T19:59:44.339Z,18.67
2023-01-01T20:04:47.345Z,20.47
2023-01-01T20:09:50.455Z,15.90
2023-01-01T20:14:53.877Z,15.93
2023-01-01T20:19:57.145Z,17.77
2023-01-01T20:25:00.188Z,16.67
2023-01-01T20:30:03.295Z,16.30
2023-01-01T20:35:06.865Z,16.67
2023-01-01T20:40:11.822Z,16.57
2023-01-01T20:45:15.327Z,17.30
2023-01-01T20:50:18.270Z,16.13
2023-01-01T20:55:21.407Z,17.17
2023-01-01T21:00:24.295Z,14.17
2023-01-01T21:05:27.167Z,15.77
2023-01-01T21:10:30.559Z,14.60
2023-01-01T21:15:33.617Z,17.57
2023-01-01T21:20:40.720Z,19.20
2023-01-01T21:25:52.040Z,17.17
2023-01-01T21:30:57.475Z,15.37
2023-01-01T21:36:16.295Z,19.47
2023-01-01T21:41:24.128Z,14.33
2023-01-01T21:46:36.273Z,14.87
2023-01-01T21:52:01.327Z,15.37
2023-01-01T21:57:23.495Z,14.27
2023-01-01T22:02:38.459Z,16.23
2023-01-01T22:08:00.790Z,13.63
2023-01-01T22:13:16.902Z,16.03
2023-01-01T22:18:30.745Z,14.77
2023-01-01T22:23:41.963Z,14.30
2023-01-01T22:28:47.290Z,14.18
2023-01-01T22:33:53.214Z,15.70
2023-01-01T22:39:13.630Z,14.47
2023-01-01T22:44:16.337Z,15.87
2023-01-01T22:49:24.307Z,19.17
2023-01-01T22:54:27.261Z,18.27
2023-01-01T22:59:30.990Z,19.47
2023-01-01T23:04:35.197Z,16.53
2023-01-01T23:09:38.064Z,15.43
2023-01-01T23:14:59.654Z,16.30
2023-01-01T23:20:03.539Z,17.92
2023-01-01T23:25:10.303Z,15.47
2023-01-01T23:30:13.998Z,16.33
2023-01-01T23:35:17.273Z,16.20
2023-01-01T23:40:20.191Z,14.13
2023-01-01T23:45:23.085Z,18.83
2023-01-01T23:50:26.126Z,16.27
2023-01-01T23:55:30.911Z,18.90
